« Back
NWS Peachtree City, Ga » Text Product » CSG Terminal Aerodrome Forecast


Printer-friendly Version
Current Version              Previous Versions:   1  2  3  4  5  6  7  8  9  

Terminal Aerodrome Forecast

080
FTUS42 KFFC 292320
TAFCSG
TAF
KCSG 292320Z 3000/3024 26010KT P6SM SCT070
     FM300100 27004KT P6SM SCT070
     FM301400 28005KT P6SM FEW030
     FM301600 29007KT P6SM SCT050 PROB30 3020/3024 5SM -TSRA
      BKN035CB=

USA.gov is the U.S. government's official web portal to all federal, state and local government web resources and services.